createdAt,value
2019-06-26T00:00:39.015Z,29.48
2019-06-26T00:03:43.031Z,32.13
2019-06-26T00:06:47.222Z,30.15
2019-06-26T00:09:51.257Z,33.25
2019-06-26T00:12:55.368Z,32.73
2019-06-26T00:15:59.771Z,34.58
2019-06-26T00:19:03.991Z,33.80
2019-06-26T00:22:08.012Z,32.80
2019-06-26T00:25:12.122Z,31.68
2019-06-26T00:28:16.342Z,31.20
2019-06-26T00:31:20.563Z,31.07
2019-06-26T00:34:24.784Z,31.65
2019-06-26T00:37:28.903Z,32.25
2019-06-26T00:40:33.292Z,32.50
2019-06-26T00:43:42.285Z,32.67
2019-06-26T00:46:43.194Z,34.58
2019-06-26T00:49:47.320Z,32.23
2019-06-26T00:52:51.387Z,34.03
2019-06-26T00:55:55.350Z,27.90
2019-06-26T00:58:59.545Z,33.13
2019-06-26T01:02:03.452Z,29.65
2019-06-26T01:05:09.590Z,30.17
2019-06-26T01:08:13.531Z,28.75
2019-06-26T01:11:17.653Z,28.32
2019-06-26T01:14:21.607Z,29.25
2019-06-26T01:17:25.517Z,27.80
2019-06-26T01:20:29.693Z,30.32
2019-06-26T01:23:33.815Z,28.62
2019-06-26T01:26:38.034Z,28.17
2019-06-26T01:29:41.976Z,28.05
2019-06-26T01:32:45.984Z,30.05
2019-06-26T01:35:50.173Z,27.85
2019-06-26T01:38:54.093Z,28.20
2019-06-26T01:41:58.120Z,28.45
2019-06-26T01:45:02.133Z,27.85
2019-06-26T01:48:06.150Z,31.02
2019-06-26T01:51:10.107Z,27.45
2019-06-26T01:54:14.079Z,27.90
2019-06-26T01:57:18.049Z,28.02
2019-06-26T02:00:23.506Z,26.20
2019-06-26T02:03:27.548Z,25.75
2019-06-26T02:06:31.468Z,27.73
2019-06-26T02:09:35.437Z,27.02
2019-06-26T02:12:39.536Z,27.00
2019-06-26T02:15:43.482Z,26.45
2019-06-26T02:18:54.674Z,25.52
2019-06-26T02:21:58.635Z,24.10
2019-06-26T02:25:02.699Z,24.57
2019-06-26T02:28:06.819Z,23.22
2019-06-26T02:31:10.917Z,24.67
2019-06-26T02:34:14.866Z,24.20
2019-06-26T02:37:18.767Z,21.85
2019-06-26T02:40:22.860Z,24.05
2019-06-26T02:43:26.833Z,23.98
2019-06-26T02:46:30.732Z,21.87
2019-06-26T02:49:34.707Z,23.30
2019-06-26T02:52:38.675Z,23.60
2019-06-26T02:55:42.708Z,22.67
2019-06-26T02:58:46.647Z,23.30
2019-06-26T03:01:50.619Z,22.70
2019-06-26T03:04:54.556Z,22.02
2019-06-26T03:07:58.487Z,22.00
2019-06-26T03:11:02.601Z,22.80
2019-06-26T03:14:06.616Z,23.15
2019-06-26T03:17:10.588Z,23.42
2019-06-26T03:20:14.779Z,22.10
2019-06-26T03:23:18.746Z,22.58
2019-06-26T03:26:22.687Z,23.20
2019-06-26T03:29:26.619Z,22.02
2019-06-26T03:32:30.568Z,23.25
2019-06-26T03:35:34.486Z,23.12
2019-06-26T03:38:38.564Z,24.87
2019-06-26T03:41:42.618Z,22.90
2019-06-26T03:44:46.516Z,22.48
2019-06-26T03:47:50.494Z,21.50
2019-06-26T03:50:54.402Z,21.45
2019-06-26T03:53:58.337Z,21.65
2019-06-26T03:57:02.297Z,22.42
2019-06-26T04:00:08.628Z,20.90
2019-06-26T04:03:12.757Z,20.88
2019-06-26T04:06:16.801Z,20.95
2019-06-26T04:09:20.754Z,20.40
2019-06-26T04:12:24.686Z,18.60
2019-06-26T04:15:41.400Z,19.45
2019-06-26T04:18:34.194Z,19.00
2019-06-26T04:21:38.137Z,18.67
2019-06-26T04:24:42.157Z,19.10
2019-06-26T04:27:46.118Z,18.30
2019-06-26T04:30:50.069Z,18.00
2019-06-26T04:33:53.997Z,18.10
2019-06-26T04:36:58.041Z,18.50
2019-06-26T04:40:02.069Z,17.50
2019-06-26T04:43:05.991Z,15.90
2019-06-26T04:46:09.946Z,15.58
2019-06-26T04:49:14.120Z,14.15
2019-06-26T04:52:18.248Z,14.13
2019-06-26T04:55:22.329Z,12.85
2019-06-26T04:58:26.251Z,13.18
2019-06-26T05:01:30.165Z,11.83
2019-06-26T05:04:34.130Z,11.70
2019-06-26T05:07:38.018Z,11.05
2019-06-26T05:10:42.885Z,10.88
2019-06-26T05:13:46.808Z,11.15
2019-06-26T05:16:50.911Z,11.10
2019-06-26T05:19:54.805Z,13.58
2019-06-26T05:22:58.771Z,14.98
2019-06-26T05:26:02.804Z,17.73
2019-06-26T05:29:06.778Z,15.38
2019-06-26T05:32:10.741Z,17.62
2019-06-26T05:35:14.791Z,14.73
2019-06-26T05:38:18.729Z,14.45
2019-06-26T05:41:22.712Z,14.28
2019-06-26T05:44:26.757Z,13.30
2019-06-26T05:47:30.852Z,13.58
2019-06-26T05:50:34.847Z,13.83
2019-06-26T05:53:38.746Z,13.90
2019-06-26T05:56:45.332Z,14.07
2019-06-26T05:59:48.417Z,14.30
2019-06-26T06:02:54.029Z,13.15
2019-06-26T06:05:57.908Z,13.03
2019-06-26T06:09:02.088Z,11.18
2019-06-26T06:12:06.280Z,10.70
2019-06-26T06:15:10.719Z,8.73
2019-06-26T06:18:14.755Z,9.15
2019-06-26T06:21:18.663Z,9.30
2019-06-26T06:24:22.733Z,8.98
2019-06-26T06:27:26.727Z,9.25
2019-06-26T06:30:30.688Z,9.20
2019-06-26T06:33:34.766Z,9.15
2019-06-26T06:36:38.722Z,9.33
2019-06-26T06:39:42.628Z,9.50
2019-06-26T06:42:48.161Z,9.25
2019-06-26T06:45:52.295Z,9.93
2019-06-26T06:48:56.280Z,8.15
2019-06-26T06:52:00.317Z,8.40
2019-06-26T06:55:08.388Z,8.10
2019-06-26T06:58:12.408Z,8.53
2019-06-26T07:01:16.474Z,8.98
2019-06-26T07:04:20.435Z,8.73
2019-06-26T07:07:24.398Z,8.53
2019-06-26T07:10:47.685Z,9.05
2019-06-26T07:13:51.804Z,8.45
2019-06-26T07:16:55.835Z,8.73
2019-06-26T07:19:59.955Z,8.30
2019-06-26T07:23:04.062Z,8.40
2019-06-26T07:26:08.240Z,8.23
2019-06-26T07:29:12.183Z,7.62
2019-06-26T07:32:16.091Z,8.03
2019-06-26T07:35:20.056Z,7.87
2019-06-26T07:38:24.132Z,7.03
2019-06-26T07:41:28.182Z,6.72
2019-06-26T07:44:32.236Z,6.85
2019-06-26T07:47:43.349Z,6.67
2019-06-26T07:50:41.817Z,6.42
2019-06-26T07:53:45.727Z,6.22
2019-06-26T07:56:49.816Z,6.10
2019-06-26T07:59:53.893Z,5.55
2019-06-26T08:02:57.900Z,5.35
2019-06-26T08:06:02.022Z,6.20
2019-06-26T08:09:07.087Z,5.85
2019-06-26T08:12:10.992Z,6.55
2019-06-26T08:15:15.856Z,7.00
2019-06-26T08:18:19.877Z,6.70
2019-06-26T08:21:23.846Z,6.92
2019-06-26T08:24:27.756Z,7.10
2019-06-26T08:27:31.706Z,7.53
2019-06-26T08:30:35.647Z,7.55
2019-06-26T08:33:39.771Z,7.12
2019-06-26T08:36:43.803Z,7.40
2019-06-26T08:39:47.881Z,7.58
2019-06-26T08:42:52.733Z,6.78
2019-06-26T08:45:56.848Z,7.28
2019-06-26T08:49:00.777Z,7.10
2019-06-26T08:52:05.551Z,7.90
2019-06-26T08:55:09.749Z,7.50
2019-06-26T08:58:13.696Z,7.47
2019-06-26T09:01:17.625Z,7.37
2019-06-26T09:04:21.576Z,7.55
2019-06-26T09:07:25.479Z,7.95
2019-06-26T09:10:29.411Z,7.58
2019-06-26T09:13:33.290Z,7.60
2019-06-26T09:16:37.260Z,8.30
2019-06-26T09:19:41.197Z,8.10
2019-06-26T09:22:45.203Z,7.70
2019-06-26T09:25:49.177Z,7.65
2019-06-26T09:28:53.722Z,8.00
2019-06-26T09:31:57.623Z,7.92
2019-06-26T09:35:01.642Z,7.70
2019-06-26T09:38:05.678Z,7.60
2019-06-26T09:41:09.739Z,7.45
2019-06-26T09:44:13.778Z,7.58
2019-06-26T09:47:17.735Z,7.90
2019-06-26T09:50:21.767Z,7.03
2019-06-26T09:53:25.706Z,7.67
2019-06-26T09:56:29.621Z,8.08
2019-06-26T09:59:33.683Z,7.70
2019-06-26T10:02:37.792Z,7.87
2019-06-26T10:05:42.207Z,7.67
2019-06-26T10:08:46.094Z,8.13
2019-06-26T10:11:50.072Z,7.90
2019-06-26T10:14:53.983Z,6.80
2019-06-26T10:17:57.942Z,7.90
2019-06-26T10:21:01.900Z,8.10
2019-06-26T10:24:06.126Z,7.83
2019-06-26T10:27:10.237Z,7.08
2019-06-26T10:30:14.614Z,7.33
2019-06-26T10:33:18.542Z,7.12
2019-06-26T10:36:24.607Z,6.85
2019-06-26T10:39:28.232Z,6.60
2019-06-26T10:42:33.774Z,7.20
2019-06-26T10:45:37.792Z,7.08
2019-06-26T10:48:41.846Z,6.55
2019-06-26T10:51:45.966Z,6.53
2019-06-26T10:54:50.143Z,7.12
2019-06-26T10:57:54.262Z,6.97
2019-06-26T11:00:58.603Z,6.83
2019-06-26T11:04:02.843Z,8.10
2019-06-26T11:07:06.809Z,7.67
2019-06-26T11:10:11.539Z,7.00
2019-06-26T11:13:15.589Z,6.97
2019-06-26T11:16:19.491Z,7.78
2019-06-26T11:19:23.589Z,6.53
2019-06-26T11:22:27.574Z,7.05
2019-06-26T11:25:31.573Z,6.53
2019-06-26T11:28:35.526Z,6.40
2019-06-26T11:31:39.627Z,6.80
2019-06-26T11:34:43.627Z,6.65
2019-06-26T11:37:47.536Z,7.15
2019-06-26T11:40:51.507Z,6.70
2019-06-26T11:43:55.546Z,6.70
2019-06-26T11:46:59.560Z,6.45
2019-06-26T11:50:05.047Z,7.20
2019-06-26T11:53:09.009Z,6.30
2019-06-26T11:56:13.118Z,6.05
2019-06-26T11:59:17.055Z,6.72
2019-06-26T12:02:21.192Z,6.25
2019-06-26T12:05:25.436Z,5.53
2019-06-26T12:08:29.352Z,6.12
2019-06-26T12:11:33.308Z,6.80
2019-06-26T12:14:37.368Z,5.47
2019-06-26T12:17:41.271Z,6.40
2019-06-26T12:20:45.238Z,7.05
2019-06-26T12:23:49.278Z,5.50
2019-06-26T12:26:53.207Z,5.40
2019-06-26T12:29:57.128Z,5.78
2019-06-26T12:33:03.269Z,5.78
2019-06-26T12:36:06.800Z,5.62
2019-06-26T12:39:10.698Z,5.90
2019-06-26T12:42:14.637Z,5.55
2019-06-26T12:45:18.851Z,6.30
2019-06-26T12:48:22.918Z,6.03
2019-06-26T12:51:28.338Z,6.78
2019-06-26T12:54:32.521Z,6.53
2019-06-26T12:57:36.884Z,6.58
2019-06-26T13:00:41.471Z,6.83
2019-06-26T13:03:45.513Z,7.30
2019-06-26T13:06:49.818Z,7.67
2019-06-26T13:09:53.758Z,6.80
2019-06-26T13:12:57.792Z,7.50
2019-06-26T13:16:01.827Z,7.35
2019-06-26T13:19:05.842Z,6.75
2019-06-26T13:22:09.905Z,7.17
2019-06-26T13:25:16.156Z,6.85
2019-06-26T13:28:20.427Z,7.72
2019-06-26T13:31:24.366Z,7.30
2019-06-26T13:34:29.083Z,7.40
2019-06-26T13:37:33.582Z,7.58
2019-06-26T13:40:40.818Z,7.05
2019-06-26T13:43:43.153Z,7.20
2019-06-26T13:46:47.046Z,7.12
2019-06-26T13:49:51.005Z,7.03
2019-06-26T13:52:54.922Z,7.28
2019-06-26T13:55:58.853Z,7.85
2019-06-26T13:59:02.796Z,7.10
2019-06-26T14:02:06.726Z,7.33
2019-06-26T14:05:11.556Z,7.08
2019-06-26T14:08:15.439Z,7.75
2019-06-26T14:11:19.701Z,7.80
2019-06-26T14:14:41.108Z,7.10
2019-06-26T14:17:29.427Z,7.55
2019-06-26T14:20:33.938Z,7.15
2019-06-26T14:23:38.329Z,7.08
2019-06-26T14:26:42.497Z,7.03
2019-06-26T14:29:46.407Z,7.28
2019-06-26T14:32:50.367Z,7.45
2019-06-26T14:35:54.446Z,7.55
2019-06-26T14:38:58.552Z,7.53
2019-06-26T14:42:02.506Z,7.15
2019-06-26T14:45:07.607Z,7.35
2019-06-26T14:48:11.548Z,7.78
2019-06-26T14:51:15.441Z,7.37
2019-06-26T14:54:19.523Z,6.85
2019-06-26T14:57:25.989Z,7.30
2019-06-26T15:00:29.177Z,7.17
2019-06-26T15:03:33.147Z,7.35
2019-06-26T15:06:37.086Z,6.58
2019-06-26T15:09:41.018Z,7.17
2019-06-26T15:12:45.029Z,7.33
2019-06-26T15:15:49.000Z,6.62
2019-06-26T15:18:52.998Z,6.60
2019-06-26T15:21:58.681Z,6.65
2019-06-26T15:25:02.486Z,7.15
2019-06-26T15:28:09.409Z,7.20
2019-06-26T15:31:12.211Z,6.28
2019-06-26T15:34:16.284Z,5.90
2019-06-26T15:37:20.212Z,5.80
2019-06-26T15:40:24.271Z,6.00
2019-06-26T15:43:28.181Z,5.90
2019-06-26T15:46:32.077Z,5.90
2019-06-26T15:49:36.025Z,7.15
2019-06-26T15:52:39.989Z,5.37
2019-06-26T15:55:43.953Z,5.37
2019-06-26T15:58:47.886Z,5.95
2019-06-26T16:01:51.878Z,5.90
2019-06-26T16:04:55.887Z,5.40
2019-06-26T16:07:59.809Z,5.78
2019-06-26T16:11:03.718Z,5.33
2019-06-26T16:14:07.681Z,5.15
2019-06-26T16:17:15.947Z,5.37
2019-06-26T16:20:20.402Z,4.75
2019-06-26T16:23:24.318Z,5.17
2019-06-26T16:26:28.270Z,5.00
2019-06-26T16:29:32.221Z,5.22
2019-06-26T16:32:36.196Z,5.20
2019-06-26T16:35:40.294Z,5.42
2019-06-26T16:38:44.447Z,6.08
2019-06-26T16:41:49.195Z,6.60
2019-06-26T16:44:53.217Z,6.45
2019-06-26T16:47:57.231Z,6.55
2019-06-26T16:51:01.677Z,6.30
2019-06-26T16:54:05.583Z,6.03
2019-06-26T16:57:09.560Z,6.00
2019-06-26T17:00:14.099Z,6.35
2019-06-26T17:03:18.036Z,6.00
2019-06-26T17:06:21.947Z,5.87
2019-06-26T17:09:25.896Z,6.10
2019-06-26T17:12:29.816Z,5.72
2019-06-26T17:15:33.747Z,6.12
2019-06-26T17:18:37.725Z,6.30
2019-06-26T17:21:41.749Z,6.17
2019-06-26T17:24:45.826Z,5.72
2019-06-26T17:27:49.828Z,5.85
2019-06-26T17:30:53.802Z,6.70
2019-06-26T17:33:57.790Z,7.22
2019-06-26T17:37:01.862Z,7.03
2019-06-26T17:40:08.686Z,6.70
2019-06-26T17:43:13.085Z,6.10
2019-06-26T17:46:17.078Z,6.95
2019-06-26T17:49:21.028Z,6.75
2019-06-26T17:52:25.116Z,6.25
2019-06-26T17:55:29.041Z,6.22
2019-06-26T17:58:33.026Z,6.40
2019-06-26T18:01:36.986Z,6.65
2019-06-26T18:04:40.955Z,6.90
2019-06-26T18:07:44.868Z,7.35
2019-06-26T18:10:48.836Z,7.58
2019-06-26T18:13:52.778Z,7.40
2019-06-26T18:16:56.854Z,8.13
2019-06-26T18:20:00.826Z,7.58
2019-06-26T18:23:07.491Z,7.30
2019-06-26T18:26:13.344Z,7.65
2019-06-26T18:29:16.027Z,7.75
2019-06-26T18:32:19.926Z,8.18
2019-06-26T18:35:23.888Z,8.25
2019-06-26T18:38:27.826Z,8.03
2019-06-26T18:41:31.959Z,8.33
2019-06-26T18:44:35.976Z,8.50
2019-06-26T18:47:40.013Z,9.75
2019-06-26T18:50:43.953Z,8.90
2019-06-26T18:53:53.684Z,8.48
2019-06-26T18:56:53.612Z,8.53
2019-06-26T18:59:57.577Z,11.53
2019-06-26T19:03:01.530Z,10.05
2019-06-26T19:06:05.604Z,8.58
2019-06-26T19:09:09.637Z,10.00
2019-06-26T19:12:13.530Z,9.85
2019-06-26T19:15:17.787Z,9.63
2019-06-26T19:18:21.757Z,9.63
2019-06-26T19:21:25.736Z,9.45
2019-06-26T19:24:29.662Z,10.23
2019-06-26T19:27:33.720Z,9.70
2019-06-26T19:30:37.733Z,9.80
2019-06-26T19:33:44.810Z,9.55
2019-06-26T19:36:50.438Z,9.98
2019-06-26T19:39:53.549Z,9.65
2019-06-26T19:42:57.673Z,9.98
2019-06-26T19:46:01.686Z,10.05
2019-06-26T19:49:05.672Z,10.28
2019-06-26T19:52:09.575Z,10.00
2019-06-26T19:55:16.479Z,9.48
2019-06-26T19:58:21.598Z,10.78
2019-06-26T20:01:25.816Z,10.18
2019-06-26T20:04:29.866Z,10.08
2019-06-26T20:07:33.797Z,9.85
2019-06-26T20:10:41.067Z,9.88
2019-06-26T20:13:45.437Z,9.30
2019-06-26T20:16:49.387Z,9.58
2019-06-26T20:19:53.529Z,9.18
2019-06-26T20:22:57.481Z,9.50
2019-06-26T20:26:01.496Z,8.88
2019-06-26T20:29:05.544Z,9.60
2019-06-26T20:32:09.487Z,9.40
2019-06-26T20:35:13.487Z,9.40
2019-06-26T20:38:17.418Z,9.23
2019-06-26T20:41:21.511Z,9.10
2019-06-26T20:44:25.550Z,8.63
2019-06-26T20:47:29.546Z,9.58
2019-06-26T20:50:33.581Z,8.75
2019-06-26T20:53:37.555Z,9.00
2019-06-26T20:56:41.505Z,8.50
2019-06-26T20:59:45.407Z,9.10
2019-06-26T21:02:49.516Z,8.65
2019-06-26T21:05:53.816Z,9.28
2019-06-26T21:08:57.748Z,8.70
2019-06-26T21:12:02.235Z,8.68
2019-06-26T21:15:07.392Z,8.35
2019-06-26T21:18:11.622Z,8.65
2019-06-26T21:21:15.531Z,8.25
2019-06-26T21:24:19.469Z,8.53
2019-06-26T21:27:23.373Z,9.10
2019-06-26T21:30:27.336Z,8.88
2019-06-26T21:33:31.371Z,8.93
2019-06-26T21:36:35.310Z,8.20
2019-06-26T21:39:39.236Z,8.65
2019-06-26T21:42:43.263Z,8.15
2019-06-26T21:45:47.230Z,8.35
2019-06-26T21:48:51.243Z,8.40
2019-06-26T21:51:55.134Z,8.53
2019-06-26T21:54:59.115Z,9.03
2019-06-26T21:58:03.071Z,8.73
2019-06-26T22:01:07.066Z,8.93
2019-06-26T22:04:11.611Z,8.73
2019-06-26T22:07:15.505Z,8.23
2019-06-26T22:10:19.689Z,8.55
2019-06-26T22:13:23.963Z,8.20
2019-06-26T22:16:27.957Z,8.38
2019-06-26T22:19:31.863Z,8.05
2019-06-26T22:22:35.847Z,8.80
2019-06-26T22:25:50.375Z,9.20
2019-06-26T22:28:45.891Z,9.13
2019-06-26T22:31:49.866Z,8.10
2019-06-26T22:34:53.822Z,8.68
2019-06-26T22:37:57.787Z,8.50
2019-06-26T22:41:01.696Z,8.83
2019-06-26T22:44:05.776Z,9.05
2019-06-26T22:47:09.738Z,8.20
2019-06-26T22:50:14.144Z,8.90
2019-06-26T22:53:18.260Z,9.00
2019-06-26T22:56:22.236Z,8.53
2019-06-26T22:59:26.180Z,8.70
2019-06-26T23:02:30.147Z,8.63
2019-06-26T23:05:34.043Z,8.98
2019-06-26T23:08:37.987Z,8.63
2019-06-26T23:11:41.997Z,9.50
2019-06-26T23:14:45.938Z,8.43
2019-06-26T23:17:49.878Z,8.70
2019-06-26T23:20:53.788Z,9.10
2019-06-26T23:23:57.844Z,9.18
2019-06-26T23:27:01.881Z,9.00
2019-06-26T23:30:19.318Z,8.80
2019-06-26T23:33:23.246Z,9.20
2019-06-26T23:36:27.206Z,8.65
2019-06-26T23:39:31.176Z,8.85
2019-06-26T23:42:35.118Z,8.60
2019-06-26T23:45:39.018Z,8.65
2019-06-26T23:48:45.646Z,9.00
2019-06-26T23:51:48.518Z,8.75
2019-06-26T23:54:52.459Z,9.48
2019-06-26T23:57:59.317Z,9.10
